Time;durP1;ratioP1;P1;durP2;ratioP2;P2;SDS_P1;SDS_P2;PMS_P1;PMS_P2;Temp;Humidity;BMP_temperature;BMP_pressure;BME280_temperature;BME280_humidity;BME280_pressure;Samples;Min_cycle;Max_cycle;Signal;HPM_P1;HPM_P2
2023/07/28 00:00:32;;;;;;;2.80;1.17;;;21.10;99.90;;;;;;5073409;28;20477;-70
2023/07/28 00:02:58;;;;;;;1.65;1.17;;;21.10;99.90;;;;;;5073124;28;20087;-70
2023/07/28 00:05:23;;;;;;;2.72;1.58;;;21.20;99.90;;;;;;5073275;28;20017;-70
2023/07/28 00:07:49;;;;;;;3.97;1.38;;;21.10;99.90;;;;;;5073006;28;20431;-70
2023/07/28 00:10:14;;;;;;;1.30;1.20;;;21.10;99.90;;;;;;5073176;28;20024;-70
2023/07/28 00:12:40;;;;;;;1.30;1.20;;;21.10;99.90;;;;;;5073181;28;20103;-71
2023/07/28 00:15:06;;;;;;;1.95;1.15;;;21.10;99.90;;;;;;5073202;28;20017;-71
2023/07/28 00:17:31;;;;;;;2.22;1.65;;;21.10;99.90;;;;;;5073036;28;20098;-73
2023/07/28 00:19:57;;;;;;;1.45;1.25;;;21.10;99.90;;;;;;5073253;28;20056;-72
2023/07/28 00:22:22;;;;;;;2.38;1.52;;;21.10;99.90;;;;;;5071369;28;20028;-73
2023/07/28 00:24:48;;;;;;;2.88;1.52;;;21.10;99.90;;;;;;5071824;28;20078;-71
2023/07/28 00:27:14;;;;;;;1.70;1.60;;;21.10;99.90;;;;;;5073057;28;20021;-70
2023/07/28 00:29:41;;;;;;;2.42;1.75;;;21.10;99.90;;;;;;5073173;28;20039;-73
2023/07/28 00:32:07;;;;;;;3.05;1.77;;;21.10;99.90;;;;;;5072960;28;20020;-71
2023/07/28 00:34:32;;;;;;;4.15;2.13;;;21.10;99.90;;;;;;5073110;28;20041;-70
2023/07/28 00:36:58;;;;;;;3.38;2.25;;;21.10;99.90;;;;;;5072557;28;20103;-70
2023/07/28 00:39:23;;;;;;;2.58;2.35;;;21.10;99.90;;;;;;5073354;28;20024;-70
2023/07/28 00:41:49;;;;;;;2.55;2.00;;;21.00;99.90;;;;;;5073607;28;20032;-70
2023/07/28 00:44:16;;;;;;;3.65;2.33;;;21.10;99.90;;;;;;5077088;28;20496;-70
2023/07/28 00:46:42;;;;;;;2.63;2.42;;;21.10;99.90;;;;;;5075661;28;20027;-70
2023/07/28 00:49:08;;;;;;;3.75;2.60;;;21.10;99.90;;;;;;5076770;28;20029;-70
2023/07/28 00:51:36;;;;;;;3.80;2.67;;;21.10;99.90;;;;;;5077165;28;20057;-70
2023/07/28 00:54:04;;;;;;;2.45;2.25;;;21.10;99.90;;;;;;5076591;28;20012;-70
2023/07/28 00:56:29;;;;;;;2.67;2.47;;;21.10;99.90;;;;;;5075048;28;20477;-70
2023/07/28 00:58:55;;;;;;;3.53;2.83;;;21.10;99.90;;;;;;5075620;28;20063;-70
2023/07/28 01:01:21;;;;;;;2.67;2.47;;;21.10;99.90;;;;;;5076518;28;20029;-70
2023/07/28 01:03:47;;;;;;;4.53;2.75;;;21.10;99.90;;;;;;5076199;28;20029;-70
2023/07/28 01:06:38;;;;;;;3.72;2.83;;;21.00;99.90;;;;;;5076613;28;20023;-69
2023/07/28 01:09:09;;;;;;;3.55;3.10;;;21.10;99.90;;;;;;5076690;28;20079;-70
2023/07/28 01:11:35;;;;;;;3.50;3.20;;;21.10;99.90;;;;;;5077410;28;20028;-70
2023/07/28 01:14:00;;;;;;;3.42;2.90;;;21.10;99.90;;;;;;5077873;28;20028;-73
2023/07/28 01:16:26;;;;;;;4.38;3.05;;;21.10;99.90;;;;;;5076807;28;20048;-73
2023/07/28 01:18:52;;;;;;;3.38;2.90;;;21.10;99.90;;;;;;5076066;28;20488;-72
2023/07/28 01:21:22;;;;;;;4.43;2.92;;;21.10;99.90;;;;;;5076463;28;20051;-73
2023/07/28 01:24:00;;;;;;;3.95;3.20;;;21.10;99.90;;;;;;5076275;28;20119;-71
2023/07/28 01:26:35;;;;;;;3.10;2.88;;;21.00;99.90;;;;;;5076321;28;20402;-72
2023/07/28 01:29:03;;;;;;;3.83;2.97;;;21.00;99.90;;;;;;5075785;28;20448;-69
2023/07/28 01:31:29;;;;;;;4.35;2.90;;;21.00;99.90;;;;;;5076248;28;20413;-70
2023/07/28 01:33:54;;;;;;;4.28;3.00;;;21.00;99.90;;;;;;5075710;28;20021;-70
2023/07/28 01:36:20;;;;;;;3.97;3.05;;;21.10;99.90;;;;;;5076033;28;20100;-70
2023/07/28 01:38:45;;;;;;;3.28;2.80;;;21.00;99.90;;;;;;5076002;28;20032;-70
2023/07/28 01:41:11;;;;;;;5.45;2.80;;;21.00;99.90;;;;;;5076024;28;20020;-70
2023/07/28 01:43:37;;;;;;;4.22;2.92;;;21.00;99.90;;;;;;5075834;28;20040;-73
2023/07/28 01:46:02;;;;;;;4.05;2.53;;;21.00;99.90;;;;;;5076003;28;20047;-71
2023/07/28 01:48:29;;;;;;;2.80;2.47;;;21.00;99.90;;;;;;5075481;28;20056;-73
2023/07/28 01:50:54;;;;;;;2.60;2.38;;;21.00;99.90;;;;;;5075961;28;20024;-74
2023/07/28 01:53:20;;;;;;;4.72;2.60;;;21.00;99.90;;;;;;5075687;28;20020;-70
2023/07/28 01:55:46;;;;;;;2.88;2.20;;;21.00;99.90;;;;;;5075724;28;20025;-73
2023/07/28 01:58:11;;;;;;;3.95;2.47;;;21.00;99.90;;;;;;5075587;28;20108;-69
2023/07/28 02:00:37;;;;;;;3.05;2.60;;;21.00;99.90;;;;;;5075539;28;20237;-70
2023/07/28 02:03:03;;;;;;;4.35;2.53;;;21.00;99.90;;;;;;5075354;28;20151;-70
2023/07/28 02:05:29;;;;;;;3.13;2.38;;;21.00;99.90;;;;;;5075509;28;20024;-69
2023/07/28 02:07:55;;;;;;;3.95;2.92;;;21.00;99.90;;;;;;5075657;28;20407;-70
2023/07/28 02:10:23;;;;;;;3.42;2.60;;;21.00;99.90;;;;;;5075367;28;20020;-70
2023/07/28 02:12:49;;;;;;;4.18;2.58;;;21.00;99.90;;;;;;5075396;28;20465;-74
2023/07/28 02:15:14;;;;;;;2.88;2.28;;;21.00;99.90;;;;;;5075330;28;20032;-73
2023/07/28 02:17:40;;;;;;;3.00;2.28;;;21.00;99.90;;;;;;5075471;28;20454;-74
2023/07/28 02:20:06;;;;;;;4.15;2.70;;;21.00;99.90;;;;;;5075344;28;20129;-73
2023/07/28 02:22:32;;;;;;;3.00;2.33;;;21.00;99.90;;;;;;5075282;28;20029;-73
2023/07/28 02:25:01;;;;;;;3.75;2.60;;;21.00;99.90;;;;;;5075012;28;20027;-73
2023/07/28 02:27:27;;;;;;;4.45;2.85;;;21.00;99.90;;;;;;5075184;28;20050;-70
2023/07/28 02:29:53;;;;;;;3.55;2.75;;;21.00;99.90;;;;;;5075037;28;20389;-70
2023/07/28 02:32:19;;;;;;;3.83;3.20;;;21.00;99.90;;;;;;5074891;28;20495;-69
2023/07/28 02:34:44;;;;;;;3.97;2.63;;;21.00;99.90;;;;;;5074276;28;20027;-70
2023/07/28 02:37:10;;;;;;;3.53;2.70;;;21.00;99.90;;;;;;5074671;28;20028;-70
2023/07/28 02:39:35;;;;;;;4.35;2.65;;;21.00;99.90;;;;;;5073033;28;20044;-70
2023/07/28 02:42:01;;;;;;;6.03;2.75;;;21.00;99.90;;;;;;5073032;28;20103;-69
2023/07/28 02:44:27;;;;;;;3.30;2.55;;;21.00;99.90;;;;;;5074645;28;20107;-69
2023/07/28 02:46:52;;;;;;;3.35;2.50;;;21.00;99.90;;;;;;5074639;28;20016;-69
2023/07/28 02:49:18;;;;;;;5.13;2.78;;;21.00;99.90;;;;;;5074637;28;20056;-70
2023/07/28 02:51:43;;;;;;;2.60;2.40;;;21.00;99.90;;;;;;5074837;28;20020;-70
2023/07/28 02:54:10;;;;;;;2.60;2.40;;;21.00;99.90;;;;;;5074696;28;20412;-70
2023/07/28 02:56:37;;;;;;;5.85;2.92;;;21.00;99.90;;;;;;5074476;28;20103;-70
2023/07/28 02:59:04;;;;;;;2.95;2.60;;;21.00;99.90;;;;;;5074265;28;20470;-70
2023/07/28 03:01:33;;;;;;;3.35;2.60;;;20.90;99.90;;;;;;5074147;28;20135;-70
2023/07/28 03:04:02;;;;;;;5.40;2.80;;;21.00;99.90;;;;;;5073325;28;20400;-70
2023/07/28 03:06:27;;;;;;;3.15;2.60;;;21.00;99.90;;;;;;5073855;28;20390;-70
2023/07/28 03:08:53;;;;;;;3.97;2.45;;;21.00;99.90;;;;;;5074199;28;20024;-70
2023/07/28 03:11:19;;;;;;;4.70;2.55;;;21.00;99.90;;;;;;5074161;28;20038;-70
2023/07/28 03:13:44;;;;;;;6.47;2.50;;;21.00;99.90;;;;;;5074379;28;20515;-70
2023/07/28 03:16:10;;;;;;;3.38;2.30;;;21.00;99.90;;;;;;5073908;28;20496;-70
2023/07/28 03:18:35;;;;;;;3.78;2.55;;;20.90;99.90;;;;;;5074151;28;20481;-70
2023/07/28 03:21:01;;;;;;;3.67;2.10;;;21.00;99.90;;;;;;5074014;28;20090;-70
2023/07/28 03:23:27;;;;;;;3.60;2.45;;;21.00;99.90;;;;;;5073931;28;20037;-70
2023/07/28 03:25:52;;;;;;;2.97;2.13;;;21.00;99.90;;;;;;5073983;28;20074;-69
2023/07/28 03:28:18;;;;;;;2.40;2.20;;;21.00;99.90;;;;;;5074537;28;20025;-69
2023/07/28 03:30:43;;;;;;;4.43;2.05;;;20.90;99.90;;;;;;5075719;28;20029;-69
2023/07/28 03:33:09;;;;;;;2.92;2.08;;;21.00;99.90;;;;;;5074008;28;20036;-69
2023/07/28 03:35:35;;;;;;;4.50;2.00;;;21.00;99.90;;;;;;5073728;28;20070;-70
2023/07/28 03:38:00;;;;;;;3.28;2.45;;;20.90;99.90;;;;;;5074027;28;20104;-70
2023/07/28 03:40:26;;;;;;;4.38;2.10;;;20.90;99.90;;;;;;5073470;28;20017;-70
2023/07/28 03:42:52;;;;;;;3.97;1.90;;;21.00;99.90;;;;;;5075119;28;20048;-70
2023/07/28 03:45:18;;;;;;;2.70;1.92;;;21.00;99.90;;;;;;5081998;28;20025;-69
2023/07/28 03:47:44;;;;;;;3.00;2.05;;;20.90;99.90;;;;;;5074331;28;20032;-69
2023/07/28 03:50:09;;;;;;;2.50;2.17;;;20.90;99.90;;;;;;5078364;28;20024;-69
2023/07/28 03:52:35;;;;;;;1.90;1.70;;;21.00;99.90;;;;;;5080894;28;20472;-69
2023/07/28 03:55:01;;;;;;;4.57;1.50;;;20.90;99.90;;;;;;5094010;28;20017;-69
2023/07/28 03:57:27;;;;;;;2.40;1.83;;;21.00;99.90;;;;;;5076637;28;20520;-70
2023/07/28 03:59:52;;;;;;;2.10;1.48;;;20.90;99.90;;;;;;5072706;28;20046;-70
2023/07/28 04:02:18;;;;;;;3.20;1.80;;;20.90;99.90;;;;;;5077463;28;20030;-70
2023/07/28 04:04:43;;;;;;;1.92;1.50;;;20.90;99.90;;;;;;5093626;28;20061;-69
2023/07/28 04:07:09;;;;;;;2.95;1.63;;;20.90;99.90;;;;;;5088778;28;20469;-70
2023/07/28 04:09:35;;;;;;;3.22;1.70;;;21.00;99.90;;;;;;5073127;28;20532;-70
2023/07/28 04:12:00;;;;;;;3.28;1.70;;;21.00;99.90;;;;;;5069970;28;20077;-70
2023/07/28 04:14:26;;;;;;;2.08;1.50;;;20.90;99.90;;;;;;5073084;28;20017;-70
2023/07/28 04:16:51;;;;;;;2.60;1.73;;;20.90;99.90;;;;;;5072394;28;20028;-70
2023/07/28 04:19:17;;;;;;;3.10;1.10;;;20.90;99.90;;;;;;5073315;28;20024;-70
2023/07/28 04:21:42;;;;;;;2.53;1.50;;;21.00;99.90;;;;;;5073113;28;20025;-70
2023/07/28 04:24:09;;;;;;;3.08;1.33;;;20.90;99.90;;;;;;5073031;28;20028;-70
2023/07/28 04:26:34;;;;;;;1.10;1.00;;;21.00;99.90;;;;;;5072738;28;20103;-70
2023/07/28 04:29:00;;;;;;;3.38;1.23;;;20.90;99.90;;;;;;5073122;28;20110;-70
2023/07/28 04:31:26;;;;;;;1.40;1.25;;;21.00;99.90;;;;;;5072937;28;20020;-70
2023/07/28 04:33:51;;;;;;;4.00;1.42;;;21.00;99.90;;;;;;5073085;28;20052;-70
2023/07/28 04:36:17;;;;;;;3.63;1.20;;;20.90;99.90;;;;;;5073121;28;20052;-70
2023/07/28 04:38:42;;;;;;;2.33;1.38;;;20.90;99.90;;;;;;5072739;28;20028;-70
2023/07/28 04:41:08;;;;;;;2.28;1.42;;;20.90;99.90;;;;;;5072782;28;20496;-70
2023/07/28 04:43:33;;;;;;;1.23;1.13;;;20.90;99.90;;;;;;5072775;28;20043;-70
2023/07/28 04:45:59;;;;;;;2.35;1.15;;;21.00;99.90;;;;;;5073092;28;20016;-71
2023/07/28 04:48:25;;;;;;;1.48;1.27;;;21.00;99.90;;;;;;5072692;28;20028;-70
2023/07/28 04:50:50;;;;;;;1.15;1.05;;;20.90;99.90;;;;;;5072965;28;20036;-70
2023/07/28 04:53:16;;;;;;;2.15;1.23;;;20.90;99.90;;;;;;5072759;28;20021;-71
2023/07/28 04:55:41;;;;;;;1.50;1.30;;;21.00;99.90;;;;;;5072469;28;20024;-70
2023/07/28 04:58:07;;;;;;;2.60;1.40;;;20.90;99.90;;;;;;5072869;28;20074;-69
2023/07/28 05:00:32;;;;;;;2.70;1.02;;;21.00;99.90;;;;;;5073258;28;20464;-69
2023/07/28 05:02:58;;;;;;;1.27;0.85;;;21.10;99.90;;;;;;5072686;28;20044;-70
2023/07/28 05:05:23;;;;;;;1.40;0.98;;;21.10;99.90;;;;;;5072323;28;20024;-69
2023/07/28 05:07:49;;;;;;;1.38;1.00;;;21.10;99.90;;;;;;5072592;28;20029;-69
2023/07/28 05:10:14;;;;;;;1.20;1.10;;;21.10;99.90;;;;;;5072364;28;20029;-69
2023/07/28 05:12:40;;;;;;;3.88;1.65;;;21.10;99.90;;;;;;5072505;28;20036;-69
2023/07/28 05:15:10;;;;;;;2.10;1.23;;;21.10;99.90;;;;;;5072895;28;20023;-69
2023/07/28 05:17:36;;;;;;;1.20;1.10;;;21.10;99.90;;;;;;5072396;28;20474;-69
2023/07/28 05:20:03;;;;;;;1.02;0.93;;;21.10;99.90;;;;;;5072682;28;20028;-69
2023/07/28 05:22:28;;;;;;;2.45;1.20;;;21.10;99.90;;;;;;5072395;28;20044;-69
2023/07/28 05:24:54;;;;;;;2.50;1.10;;;21.10;99.90;;;;;;5072261;28;20111;-69
2023/07/28 05:27:20;;;;;;;1.27;1.10;;;21.10;99.90;;;;;;5072485;28;20423;-70
2023/07/28 05:29:45;;;;;;;1.33;1.23;;;21.10;99.90;;;;;;5075916;28;20029;-70
2023/07/28 05:32:11;;;;;;;1.75;1.40;;;21.10;99.90;;;;;;5076255;28;20029;-69
2023/07/28 05:34:36;;;;;;;2.70;1.92;;;21.10;99.90;;;;;;5076604;28;20033;-70
2023/07/28 05:37:02;;;;;;;2.50;1.33;;;21.10;99.90;;;;;;5076041;28;20074;-69
2023/07/28 05:39:28;;;;;;;1.92;1.45;;;21.10;99.90;;;;;;5075700;28;20029;-69
2023/07/28 05:41:54;;;;;;;2.75;1.33;;;21.10;99.90;;;;;;5076175;28;20033;-69
2023/07/28 05:44:19;;;;;;;2.90;1.52;;;21.10;99.90;;;;;;5076142;28;20036;-70
2023/07/28 05:46:45;;;;;;;3.50;1.90;;;21.10;99.90;;;;;;5078904;28;20387;-70
2023/07/28 05:49:11;;;;;;;2.00;1.52;;;21.10;99.90;;;;;;5085186;28;20023;-70
2023/07/28 05:51:36;;;;;;;2.35;1.58;;;21.10;99.90;;;;;;5094599;28;20024;-70
2023/07/28 05:54:02;;;;;;;1.80;1.70;;;21.10;99.90;;;;;;5085701;28;20043;-69
2023/07/28 05:56:27;;;;;;;4.00;1.90;;;21.20;99.90;;;;;;5075816;28;20112;-70
2023/07/28 05:58:53;;;;;;;3.95;1.73;;;21.20;99.90;;;;;;5076405;28;20032;-72
2023/07/28 06:01:19;;;;;;;4.35;1.83;;;21.20;99.90;;;;;;5075843;28;20032;-72
2023/07/28 06:03:45;;;;;;;2.58;1.80;;;21.20;99.90;;;;;;5079228;28;20111;-71
2023/07/28 06:06:10;;;;;;;4.00;1.67;;;21.20;99.90;;;;;;5076261;28;20063;-71
2023/07/28 06:08:36;;;;;;;1.98;1.17;;;21.10;99.90;;;;;;5083628;28;20522;-70
2023/07/28 06:11:05;;;;;;;2.25;1.40;;;21.10;99.90;;;;;;5075635;28;20031;-71
2023/07/28 06:13:32;;;;;;;2.03;1.20;;;21.10;99.90;;;;;;5075434;28;20027;-69
2023/07/28 06:15:58;;;;;;;4.40;1.55;;;21.20;99.90;;;;;;5077527;28;20056;-69
2023/07/28 06:18:24;;;;;;;1.98;1.05;;;21.20;99.90;;;;;;5094409;28;20039;-70
2023/07/28 06:20:50;;;;;;;2.90;1.02;;;21.20;99.90;;;;;;5076285;28;20096;-70
2023/07/28 06:23:15;;;;;;;5.13;1.08;;;21.20;99.90;;;;;;5075021;28;20127;-69
2023/07/28 06:25:44;;;;;;;1.13;1.00;;;21.20;99.90;;;;;;5075024;28;20020;-70
2023/07/28 06:28:13;;;;;;;4.00;1.27;;;21.20;99.90;;;;;;5075238;28;20028;-70
2023/07/28 06:30:39;;;;;;;3.58;1.10;;;21.20;99.90;;;;;;5074742;28;20051;-70
2023/07/28 06:33:08;;;;;;;2.30;1.20;;;21.20;99.90;;;;;;5075077;28;20097;-70
2023/07/28 06:35:34;;;;;;;2.97;1.70;;;21.20;99.90;;;;;;5074903;28;20028;-70
2023/07/28 06:38:00;;;;;;;2.60;1.60;;;21.20;99.90;;;;;;5074928;28;20023;-70
2023/07/28 06:40:25;;;;;;;2.28;1.60;;;21.20;99.90;;;;;;5074030;28;20032;-70
2023/07/28 06:42:51;;;;;;;2.67;1.88;;;21.30;99.90;;;;;;5074821;28;20465;-70
2023/07/28 06:45:17;;;;;;;1.80;1.63;;;21.30;99.90;;;;;;5074789;28;20100;-70
2023/07/28 06:47:42;;;;;;;1.42;1.33;;;21.30;99.90;;;;;;5074720;28;20017;-70
2023/07/28 06:50:08;;;;;;;2.20;1.58;;;21.30;99.90;;;;;;5075019;28;20428;-70
2023/07/28 06:52:34;;;;;;;2.80;1.58;;;21.30;99.90;;;;;;5074305;28;20027;-70
2023/07/28 06:55:00;;;;;;;1.88;1.40;;;21.30;99.90;;;;;;5074730;28;20090;-71
2023/07/28 06:57:25;;;;;;;2.35;1.63;;;21.30;99.90;;;;;;5087368;28;20426;-70
2023/07/28 06:59:51;;;;;;;1.63;1.17;;;21.30;99.90;;;;;;5080851;28;20115;-69
2023/07/28 07:02:17;;;;;;;2.53;1.30;;;21.30;99.90;;;;;;5085514;28;20124;-69
2023/07/28 07:04:42;;;;;;;2.70;1.00;;;21.30;99.90;;;;;;5078047;28;20488;-69
2023/07/28 07:07:08;;;;;;;1.00;0.90;;;21.30;99.90;;;;;;5074770;28;20055;-69
2023/07/28 07:09:34;;;;;;;2.60;1.17;;;21.30;99.90;;;;;;5074314;28;20094;-70
2023/07/28 07:12:00;;;;;;;1.30;0.82;;;21.30;99.90;;;;;;5084593;28;20024;-70
2023/07/28 07:14:25;;;;;;;2.30;1.00;;;21.30;99.90;;;;;;5085423;28;20027;-70
2023/07/28 07:16:51;;;;;;;2.50;0.70;;;21.30;99.90;;;;;;5094175;28;20028;-70
2023/07/28 07:19:16;;;;;;;2.05;0.80;;;21.40;99.90;;;;;;5076699;28;20066;-70
2023/07/28 07:21:44;;;;;;;2.47;0.98;;;21.40;99.90;;;;;;5078765;28;20473;-70
2023/07/28 07:24:10;;;;;;;1.42;0.80;;;21.40;99.90;;;;;;5075529;28;20064;-68
2023/07/28 07:26:35;;;;;;;2.38;1.30;;;21.40;99.90;;;;;;5079164;28;20059;-69
2023/07/28 07:29:01;;;;;;;2.08;0.90;;;21.40;99.90;;;;;;5078218;28;20036;-70
2023/07/28 07:31:27;;;;;;;0.98;0.77;;;21.40;99.90;;;;;;5072202;28;20020;-69
2023/07/28 07:33:52;;;;;;;1.63;0.95;;;21.40;99.90;;;;;;5073664;28;20032;-70
2023/07/28 07:36:19;;;;;;;1.58;1.20;;;21.40;99.90;;;;;;5073434;28;20051;-69
2023/07/28 07:38:51;;;;;;;1.10;0.98;;;21.40;99.90;;;;;;5081139;28;20476;-70
2023/07/28 07:41:19;;;;;;;1.45;0.88;;;21.40;99.90;;;;;;5093811;28;20024;-70
2023/07/28 07:43:46;;;;;;;1.85;1.00;;;21.40;99.90;;;;;;5081640;28;20043;-69
2023/07/28 07:46:12;;;;;;;2.10;1.10;;;21.40;99.90;;;;;;5073725;28;20017;-69
2023/07/28 07:48:38;;;;;;;1.98;1.08;;;21.40;99.90;;;;;;5073515;28;20035;-69
2023/07/28 07:51:04;;;;;;;1.90;0.90;;;21.40;99.90;;;;;;5080230;28;20017;-70
2023/07/28 07:53:29;;;;;;;1.70;0.90;;;21.40;99.90;;;;;;5087937;28;20028;-69
2023/07/28 07:55:55;;;;;;;1.60;0.90;;;21.50;99.90;;;;;;5085762;28;20147;-69
2023/07/28 07:58:20;;;;;;;2.88;1.13;;;21.50;99.90;;;;;;5077560;28;20031;-69
2023/07/28 08:00:46;;;;;;;1.85;1.00;;;21.30;99.90;;;;;;5077485;28;20545;-69
2023/07/28 08:03:11;;;;;;;1.00;0.90;;;21.20;99.90;;;;;;5084007;28;20122;-69
2023/07/28 08:05:37;;;;;;;2.20;0.77;;;21.10;99.90;;;;;;5083686;28;20020;-70
2023/07/28 08:08:05;;;;;;;1.42;1.10;;;21.10;99.90;;;;;;5093013;28;20521;-71
2023/07/28 08:10:30;;;;;;;1.05;0.90;;;21.10;99.90;;;;;;5084054;28;20553;-71
2023/07/28 08:12:56;;;;;;;1.50;0.95;;;21.10;99.90;;;;;;5079487;28;20103;-70
2023/07/28 08:15:21;;;;;;;3.83;1.75;;;21.10;99.90;;;;;;5077377;28;20465;-70
2023/07/28 08:17:47;;;;;;;1.23;0.82;;;21.10;99.90;;;;;;5076529;28;20393;-69
2023/07/28 08:20:13;;;;;;;1.25;0.82;;;21.20;99.90;;;;;;5076782;28;20047;-69
2023/07/28 08:22:38;;;;;;;3.38;1.20;;;21.10;99.90;;;;;;5074848;28;20508;-69
2023/07/28 08:25:05;;;;;;;1.13;0.70;;;21.10;99.90;;;;;;5091644;28;20035;-69
2023/07/28 08:27:30;;;;;;;3.13;0.85;;;21.20;99.90;;;;;;5086826;28;20100;-69
2023/07/28 08:29:56;;;;;;;3.20;1.27;;;21.20;99.90;;;;;;5077012;28;20115;-69
2023/07/28 08:32:22;;;;;;;1.30;0.80;;;21.20;99.90;;;;;;5087681;28;20477;-69
2023/07/28 08:34:47;;;;;;;1.85;0.98;;;21.20;99.90;;;;;;5074283;28;20461;-69
2023/07/28 08:37:13;;;;;;;1.33;0.70;;;21.20;99.90;;;;;;5077228;28;20493;-69
2023/07/28 08:39:39;;;;;;;2.45;1.15;;;21.20;99.90;;;;;;5081761;28;20517;-69
2023/07/28 08:42:05;;;;;;;2.45;0.80;;;21.20;99.90;;;;;;5079128;28;20051;-70
2023/07/28 08:44:32;;;;;;;3.90;0.60;;;21.20;99.90;;;;;;5081449;28;20477;-71
2023/07/28 08:46:59;;;;;;;1.92;0.55;;;21.30;99.90;;;;;;5081849;28;20265;-70
2023/07/28 08:49:25;;;;;;;1.25;0.90;;;21.30;99.90;;;;;;5091347;28;20055;-71
2023/07/28 08:51:51;;;;;;;1.02;0.80;;;21.30;99.90;;;;;;5079506;28;20064;-70
2023/07/28 08:54:16;;;;;;;1.98;1.13;;;21.30;99.90;;;;;;5085843;28;20020;-70
2023/07/28 08:56:45;;;;;;;1.27;0.82;;;21.30;99.90;;;;;;5089256;28;20055;-69
2023/07/28 08:59:11;;;;;;;2.33;1.75;;;21.30;99.90;;;;;;5085717;28;20032;-70
2023/07/28 09:01:43;;;;;;;2.25;1.73;;;21.30;99.90;;;;;;5075753;28;20024;-69
2023/07/28 09:04:12;;;;;;;2.95;1.90;;;21.40;99.90;;;;;;5086991;28;20071;-69
2023/07/28 09:06:38;;;;;;;3.92;2.78;;;21.30;99.90;;;;;;5083690;28;20024;-70
2023/07/28 09:09:07;;;;;;;2.60;2.40;;;21.40;99.90;;;;;;5082841;28;20008;-70
2023/07/28 09:11:32;;;;;;;9.05;3.08;;;21.40;99.90;;;;;;5082671;28;20055;-71
2023/07/28 09:14:00;;;;;;;6.43;3.15;;;21.40;99.90;;;;;;5084338;28;20052;-70
2023/07/28 09:16:29;;;;;;;24.63;17.02;;;21.50;99.90;;;;;;5087299;28;20021;-69
2023/07/28 09:19:08;;;;;;;34.35;27.52;;;21.50;99.90;;;;;;5086514;28;20017;-70
2023/07/28 09:21:34;;;;;;;54.13;43.92;;;21.50;99.90;;;;;;5080716;28;20405;-70
2023/07/28 09:24:03;;;;;;;44.50;38.47;;;21.50;99.90;;;;;;5096133;28;20036;-70
2023/07/28 09:26:42;;;;;;;35.60;29.90;;;21.50;99.90;;;;;;5080475;28;20476;-70
2023/07/28 09:29:19;;;;;;;38.58;30.73;;;21.50;99.90;;;;;;5073517;28;20033;-70
2023/07/28 09:31:47;;;;;;;31.48;24.90;;;21.50;99.90;;;;;;5075692;28;20029;-69
2023/07/28 09:34:23;;;;;;;25.75;22.55;;;21.60;99.90;;;;;;5092682;28;20016;-70
2023/07/28 09:36:49;;;;;;;30.50;26.40;;;21.60;99.90;;;;;;5082379;28;20035;-70
2023/07/28 09:39:15;;;;;;;32.92;29.30;;;21.60;99.90;;;;;;5081361;28;20104;-70
2023/07/28 09:41:44;;;;;;;30.67;25.08;;;21.60;99.90;;;;;;5076939;28;20414;-70
2023/07/28 09:44:10;;;;;;;29.52;25.10;;;21.60;99.90;;;;;;5081402;28;20029;-70
2023/07/28 09:46:52;;;;;;;26.80;22.73;;;21.70;99.90;;;;;;5093122;28;20077;-69
2023/07/28 09:49:34;;;;;;;20.52;18.33;;;21.70;99.90;;;;;;5093250;28;20028;-69
2023/07/28 09:52:04;;;;;;;26.75;23.92;;;21.70;99.90;;;;;;5077230;28;20025;-69
2023/07/28 09:54:33;;;;;;;27.05;20.02;;;21.70;99.90;;;;;;5079789;28;20085;-70
2023/07/28 09:56:59;;;;;;;16.58;13.10;;;21.70;99.90;;;;;;5078891;28;20090;-70
2023/07/28 09:59:31;;;;;;;19.02;14.23;;;21.80;99.90;;;;;;5075553;28;20031;-69
2023/07/28 10:02:01;;;;;;;19.80;15.07;;;21.80;99.90;;;;;;5081246;28;20062;-70
2023/07/28 10:04:27;;;;;;;20.10;15.38;;;21.80;99.90;;;;;;5075504;28;20506;-70
2023/07/28 10:06:56;;;;;;;13.65;9.48;;;21.90;99.90;;;;;;5079931;28;20061;-70
2023/07/28 10:09:33;;;;;;;11.27;8.10;;;21.80;99.90;;;;;;5083817;28;20028;-70
2023/07/28 10:11:59;;;;;;;10.70;7.82;;;21.90;99.90;;;;;;5086011;28;20028;-70
2023/07/28 10:14:30;;;;;;;8.15;6.22;;;21.90;99.90;;;;;;5084351;28;20031;-70
2023/07/28 10:16:57;;;;;;;6.95;5.57;;;21.90;99.90;;;;;;5086802;28;20028;-70
2023/07/28 10:19:26;;;;;;;5.70;3.95;;;21.90;99.90;;;;;;5083178;28;20602;-70
2023/07/28 10:21:59;;;;;;;6.35;4.30;;;21.90;99.90;;;;;;5084006;28;20028;-70
2023/07/28 10:24:55;;;;;;;7.47;4.80;;;22.00;99.90;;;;;;5075872;28;20040;-70
2023/07/28 10:27:45;;;;;;;6.97;4.53;;;22.00;99.90;;;;;;5089138;28;20024;-70
2023/07/28 10:30:13;;;;;;;6.95;4.72;;;22.00;99.90;;;;;;5081476;28;20039;-70
2023/07/28 10:32:40;;;;;;;7.43;4.68;;;22.00;99.90;;;;;;5074140;28;20059;-69
2023/07/28 10:35:27;;;;;;;5.78;4.10;;;22.00;99.90;;;;;;5075979;28;20019;-69
2023/07/28 10:37:56;;;;;;;7.07;4.75;;;22.00;99.90;;;;;;5073763;28;20423;-71
2023/07/28 10:40:28;;;;;;;5.68;4.22;;;22.10;99.90;;;;;;5074477;28;20056;-71
2023/07/28 10:42:54;;;;;;;;;;;22.10;99.90;;;;;;5080607;28;20051;-73
2023/07/28 10:45:22;;;;;;;4.40;3.22;;;22.10;99.90;;;;;;5079827;28;20766;-73
2023/07/28 10:47:48;;;;;;;4.38;3.60;;;22.00;99.90;;;;;;5083385;28;20029;-73
2023/07/28 10:50:14;;;;;;;4.93;3.05;;;22.10;99.90;;;;;;5088677;28;20076;-72
2023/07/28 10:52:41;;;;;;;4.53;2.83;;;22.10;99.90;;;;;;5078831;28;20119;-72
2023/07/28 10:55:14;;;;;;;4.00;3.05;;;22.20;99.90;;;;;;5079177;28;20028;-69
2023/07/28 10:57:43;;;;;;;4.97;2.53;;;22.20;99.90;;;;;;5082618;28;20033;-70
2023/07/28 11:00:14;;;;;;;4.82;2.45;;;22.20;99.90;;;;;;5072527;28;20032;-69
2023/07/28 11:02:47;;;;;;;4.68;2.83;;;22.20;99.90;;;;;;5071468;28;20120;-70
2023/07/28 11:05:27;;;;;;;3.63;2.22;;;22.20;99.90;;;;;;5076174;28;20020;-71
2023/07/28 11:08:01;;;;;;;3.40;2.25;;;22.30;99.90;;;;;;5083796;28;20024;-70
2023/07/28 11:10:31;;;;;;;2.25;1.50;;;22.30;99.90;;;;;;5073364;28;20040;-70
2023/07/28 11:13:00;;;;;;;4.60;2.25;;;22.30;99.90;;;;;;5076206;28;20574;-71
2023/07/28 11:15:26;;;;;;;3.30;2.45;;;22.30;99.90;;;;;;5079938;28;20035;-70
2023/07/28 11:17:52;;;;;;;3.63;2.17;;;22.30;99.90;;;;;;5081867;28;20028;-71
2023/07/28 11:20:25;;;;;;;3.38;1.60;;;22.30;99.90;;;;;;5072053;28;20078;-71
2023/07/28 11:22:54;;;;;;;1.58;1.42;;;22.30;99.90;;;;;;5073808;28;20033;-71
2023/07/28 11:25:21;;;;;;;2.17;1.48;;;22.40;99.90;;;;;;5073646;28;20141;-70
2023/07/28 11:27:47;;;;;;;4.65;1.70;;;22.40;99.90;;;;;;5074626;28;20020;-70
2023/07/28 11:30:13;;;;;;;3.17;1.42;;;22.40;99.90;;;;;;5090882;28;20387;-70
2023/07/28 11:32:39;;;;;;;3.05;2.05;;;22.40;99.90;;;;;;5091698;28;20387;-70
2023/07/28 11:35:05;;;;;;;3.83;1.70;;;22.40;99.90;;;;;;5077738;28;20465;-70
2023/07/28 11:37:33;;;;;;;2.05;1.50;;;22.40;99.90;;;;;;5087656;28;20027;-70
2023/07/28 11:40:00;;;;;;;3.17;1.85;;;22.40;99.90;;;;;;5082856;28;20052;-70
2023/07/28 11:42:28;;;;;;;3.05;1.27;;;22.50;99.90;;;;;;5084988;28;20074;-70
2023/07/28 11:44:54;;;;;;;1.85;1.30;;;22.50;99.90;;;;;;5080170;28;20028;-70
2023/07/28 11:47:20;;;;;;;3.45;1.27;;;22.50;99.90;;;;;;5078505;28;20039;-70
2023/07/28 11:49:50;;;;;;;4.35;1.30;;;22.50;99.90;;;;;;5074362;28;20016;-70
2023/07/28 11:52:16;;;;;;;4.43;1.30;;;22.50;99.90;;;;;;5075650;28;20575;-70
2023/07/28 11:54:43;;;;;;;2.65;1.40;;;22.60;99.90;;;;;;5076760;28;20017;-71
2023/07/28 11:57:09;;;;;;;3.03;1.30;;;22.60;99.90;;;;;;5083160;28;20160;-70
2023/07/28 11:59:35;;;;;;;2.13;1.20;;;22.50;99.90;;;;;;5073815;28;20098;-70
2023/07/28 12:02:04;;;;;;;2.28;0.93;;;22.60;99.90;;;;;;5083260;28;20036;-70
2023/07/28 12:04:32;;;;;;;1.02;0.50;;;22.50;99.90;;;;;;5080162;28;20381;-71
2023/07/28 12:07:08;;;;;;;0.68;0.32;;;22.60;99.90;;;;;;5079820;28;20470;-70
2023/07/28 12:10:05;;;;;;;2.95;0.60;;;22.60;99.90;;;;;;5076348;28;20465;-71
2023/07/28 12:12:38;;;;;;;1.05;0.60;;;22.60;99.90;;;;;;5087401;28;20473;-71
2023/07/28 12:15:19;;;;;;;3.10;0.60;;;22.70;99.90;;;;;;5076549;28;20393;-70
2023/07/28 12:18:12;;;;;;;2.20;0.57;;;22.70;99.90;;;;;;5072624;28;20032;-70
2023/07/28 12:20:49;;;;;;;1.33;0.60;;;22.70;99.90;;;;;;5076190;28;20111;-70
2023/07/28 12:23:17;;;;;;;1.55;0.80;;;22.70;99.90;;;;;;5076854;28;20384;-70
2023/07/28 12:25:43;;;;;;;2.55;0.70;;;22.70;99.90;;;;;;5092573;28;20023;-70
2023/07/28 12:28:10;;;;;;;1.52;0.63;;;22.70;99.90;;;;;;5093284;28;20032;-70
2023/07/28 12:30:36;;;;;;;1.17;0.70;;;22.80;99.90;;;;;;5091692;28;20038;-70
2023/07/28 12:33:03;;;;;;;2.22;0.75;;;22.80;99.90;;;;;;5092972;28;20035;-70
2023/07/28 12:35:34;;;;;;;2.45;0.63;;;22.80;99.90;;;;;;5073819;28;20037;-70
2023/07/28 12:38:03;;;;;;;3.70;1.10;;;22.80;99.90;;;;;;5072361;28;20017;-70
2023/07/28 12:40:29;;;;;;;1.55;0.60;;;22.80;99.90;;;;;;5073484;28;20032;-69
2023/07/28 12:42:56;;;;;;;1.83;1.10;;;22.80;99.90;;;;;;5080143;28;20047;-69
2023/07/28 12:45:22;;;;;;;1.50;0.52;;;22.80;99.90;;;;;;5093272;28;20012;-69